createdAt,value
2023-10-03T00:00:45.511Z,100087.60
2023-10-03T00:03:33.878Z,100105.20
2023-10-03T00:06:01.986Z,100126.80
2023-10-03T00:08:29.840Z,100129.80
2023-10-03T00:10:57.642Z,100134.80
2023-10-03T00:13:26.450Z,100148.00
2023-10-03T00:15:54.861Z,100147.80
2023-10-03T00:18:22.904Z,100156.40
2023-10-03T00:20:50.850Z,100160.80
2023-10-03T00:23:18.603Z,100165.60
2023-10-03T00:25:46.418Z,100171.20
2023-10-03T00:28:15.607Z,100176.00
2023-10-03T00:30:46.692Z,100172.80
2023-10-03T00:33:15.270Z,100188.00
2023-10-03T00:35:43.918Z,100198.60
2023-10-03T00:38:15.633Z,100189.00
2023-10-03T00:40:54.326Z,100194.20
2023-10-03T00:43:22.977Z,100194.00
2023-10-03T00:45:50.779Z,100199.80
2023-10-03T00:48:19.987Z,100199.80
2023-10-03T00:50:49.714Z,100203.40
2023-10-03T00:53:18.552Z,100209.00
2023-10-03T00:55:48.812Z,100212.80
2023-10-03T00:58:29.130Z,100216.20
2023-10-03T01:00:58.966Z,100217.80
2023-10-03T01:03:34.656Z,100202.00
2023-10-03T01:06:08.763Z,100190.40
2023-10-03T01:08:47.383Z,100197.80
2023-10-03T01:11:18.738Z,100191.00
2023-10-03T01:13:49.562Z,100183.40
2023-10-03T01:16:28.826Z,100176.60
2023-10-03T01:19:08.249Z,100185.60
2023-10-03T01:21:36.760Z,100183.60
2023-10-03T01:24:09.936Z,100184.80
2023-10-03T01:26:37.840Z,100194.40
2023-10-03T01:29:05.729Z,100204.80
2023-10-03T01:31:33.502Z,100218.00
2023-10-03T01:34:02.366Z,100219.40
2023-10-03T01:36:30.727Z,100214.60
2023-10-03T01:38:58.861Z,100217.40
2023-10-03T01:41:27.787Z,100226.40
2023-10-03T01:43:55.746Z,100230.80
2023-10-03T01:46:23.535Z,100261.40
2023-10-03T01:48:51.429Z,100265.40
2023-10-03T01:51:20.040Z,100267.40
2023-10-03T01:53:47.858Z,100284.40
2023-10-03T01:56:15.788Z,100297.80
2023-10-03T01:58:44.397Z,100307.40
2023-10-03T02:01:14.139Z,100317.80
2023-10-03T02:03:42.249Z,100316.60
2023-10-03T02:06:10.628Z,100318.60
2023-10-03T02:08:38.639Z,100327.20
2023-10-03T02:11:07.646Z,100332.80
2023-10-03T02:13:35.906Z,100323.40
2023-10-03T02:16:04.498Z,100315.80
2023-10-03T02:18:32.413Z,100324.40
2023-10-03T02:21:02.643Z,100327.80
2023-10-03T02:23:31.306Z,100325.80
2023-10-03T02:26:11.839Z,100334.60
2023-10-03T02:28:41.942Z,100343.80
2023-10-03T02:31:10.721Z,100349.20
2023-10-03T02:33:45.716Z,100351.00
2023-10-03T02:36:16.266Z,100351.40
2023-10-03T02:38:44.679Z,100351.80
2023-10-03T02:41:14.054Z,100361.80
2023-10-03T02:43:48.284Z,100362.80
2023-10-03T02:46:20.537Z,100355.20
2023-10-03T02:48:52.981Z,100347.80
2023-10-03T02:51:20.875Z,100354.20
2023-10-03T02:53:49.032Z,100365.00
2023-10-03T02:56:17.059Z,100367.00
2023-10-03T02:58:45.137Z,100367.60
2023-10-03T03:01:13.230Z,100375.80
2023-10-03T03:03:42.196Z,100377.80
2023-10-03T03:06:15.464Z,100378.00
2023-10-03T03:08:46.505Z,100382.80
2023-10-03T03:11:17.333Z,100387.80
2023-10-03T03:13:45.389Z,100393.00
2023-10-03T03:16:15.689Z,100394.60
2023-10-03T03:18:44.718Z,100399.00
2023-10-03T03:21:16.194Z,100395.20
2023-10-03T03:23:58.668Z,100394.60
2023-10-03T03:26:38.520Z,100398.40
2023-10-03T03:29:21.828Z,100405.40
2023-10-03T03:31:51.958Z,100411.20
2023-10-03T03:34:21.153Z,100412.80
2023-10-03T03:36:51.102Z,100414.00
2023-10-03T03:39:21.826Z,100416.20
2023-10-03T03:41:50.908Z,100424.20
2023-10-03T03:44:20.130Z,100434.00
2023-10-03T03:46:49.291Z,100438.00
2023-10-03T03:49:20.079Z,100443.60
2023-10-03T03:51:47.886Z,100450.80
2023-10-03T03:54:15.898Z,100448.40
2023-10-03T03:56:43.685Z,100451.40
2023-10-03T03:59:14.254Z,100448.60
2023-10-03T04:01:42.111Z,100454.80
2023-10-03T04:04:13.686Z,100459.00
2023-10-03T04:06:43.981Z,100460.00
2023-10-03T04:09:12.674Z,100465.20
2023-10-03T04:11:42.326Z,100471.60
2023-10-03T04:14:10.327Z,100481.00
2023-10-03T04:16:42.688Z,100481.60
2023-10-03T04:19:12.050Z,100474.20
2023-10-03T04:21:42.613Z,100469.60
2023-10-03T04:24:12.908Z,100477.20
2023-10-03T04:26:45.202Z,100478.00
2023-10-03T04:29:16.623Z,100488.00
2023-10-03T04:31:47.804Z,100489.40
2023-10-03T04:34:20.399Z,100491.40
2023-10-03T04:36:48.980Z,100496.20
2023-10-03T04:39:17.264Z,100497.60
2023-10-03T04:41:46.678Z,100500.20
2023-10-03T04:44:15.942Z,100503.00
2023-10-03T04:46:45.954Z,100499.80
2023-10-03T04:49:14.541Z,100505.60
2023-10-03T04:51:46.995Z,100510.60
2023-10-03T04:54:15.912Z,100516.60
2023-10-03T04:56:45.997Z,100515.80
2023-10-03T04:59:14.527Z,100516.60
2023-10-03T05:01:42.375Z,100524.80
2023-10-03T05:04:11.352Z,100534.40
2023-10-03T05:06:39.152Z,100533.40
2023-10-03T05:09:07.066Z,100548.60
2023-10-03T05:11:34.896Z,100549.40
2023-10-03T05:14:02.732Z,100554.40
2023-10-03T05:16:30.931Z,100563.20
2023-10-03T05:18:58.844Z,100570.60
2023-10-03T05:21:26.756Z,100573.20
2023-10-03T05:23:54.737Z,100579.80
2023-10-03T05:26:26.229Z,100585.20
2023-10-03T05:28:57.069Z,100592.60
2023-10-03T05:31:25.238Z,100592.40
2023-10-03T05:33:53.186Z,100600.20
2023-10-03T05:36:21.228Z,100594.00
2023-10-03T05:38:49.746Z,100597.20
2023-10-03T05:41:24.536Z,100605.20
2023-10-03T05:43:56.083Z,100606.80
2023-10-03T05:46:23.891Z,100610.60
2023-10-03T05:48:53.222Z,100619.00
2023-10-03T05:51:21.901Z,100626.40
2023-10-03T05:53:49.936Z,100623.40
2023-10-03T05:56:17.889Z,100631.60
2023-10-03T05:58:45.656Z,100638.60
2023-10-03T06:01:13.678Z,100635.40
2023-10-03T06:03:42.746Z,100636.40
2023-10-03T06:06:11.344Z,100650.40
2023-10-03T06:08:39.188Z,100650.60
2023-10-03T06:11:06.906Z,100647.80
2023-10-03T06:13:34.953Z,100654.20
2023-10-03T06:16:07.160Z,100656.60
2023-10-03T06:18:35.022Z,100666.80
2023-10-03T06:21:05.523Z,100667.60
2023-10-03T06:23:34.363Z,100675.60
2023-10-03T06:26:03.045Z,100676.20
2023-10-03T06:28:31.108Z,100684.40
2023-10-03T06:30:59.145Z,100692.00
2023-10-03T06:33:28.630Z,100695.60
2023-10-03T06:35:56.718Z,100696.60
2023-10-03T06:38:24.941Z,100694.00
2023-10-03T06:40:53.085Z,100696.00
2023-10-03T06:43:21.078Z,100697.20
2023-10-03T06:45:48.872Z,100689.00
2023-10-03T06:48:16.795Z,100697.80
2023-10-03T06:50:45.247Z,100700.40
2023-10-03T06:53:14.614Z,100691.00
2023-10-03T06:55:42.652Z,100689.20
2023-10-03T06:58:14.355Z,100700.40
2023-10-03T07:00:42.237Z,100694.60
2023-10-03T07:03:10.492Z,100700.40
2023-10-03T07:05:38.668Z,100715.60
2023-10-03T07:08:06.644Z,100718.60
2023-10-03T07:10:34.543Z,100720.00
2023-10-03T07:13:03.458Z,100724.40
2023-10-03T07:15:31.936Z,100732.80
2023-10-03T07:17:59.788Z,100732.20
2023-10-03T07:20:27.819Z,100733.60
2023-10-03T07:22:55.750Z,100735.00
2023-10-03T07:25:23.628Z,100736.60
2023-10-03T07:27:51.361Z,100745.60
2023-10-03T07:30:19.968Z,100753.60
2023-10-03T07:32:48.922Z,100754.00
2023-10-03T07:35:18.426Z,100758.60
2023-10-03T07:37:46.913Z,100759.00
2023-10-03T07:40:14.680Z,100769.20
2023-10-03T07:42:43.842Z,100771.00
2023-10-03T07:45:12.336Z,100780.00
2023-10-03T07:47:42.578Z,100782.60
2023-10-03T07:50:13.149Z,100784.00
2023-10-03T07:52:51.201Z,100786.60
2023-10-03T07:55:20.329Z,100795.80
2023-10-03T07:57:48.145Z,100799.00
2023-10-03T08:00:18.840Z,100804.00
2023-10-03T08:02:47.160Z,100811.40
2023-10-03T08:05:15.052Z,100821.20
2023-10-03T08:07:48.832Z,100827.00
2023-10-03T08:10:18.237Z,100833.80
2023-10-03T08:12:48.231Z,100839.00
2023-10-03T08:15:18.884Z,100841.00
2023-10-03T08:17:49.746Z,100856.00
2023-10-03T08:20:19.454Z,100866.20
2023-10-03T08:22:52.166Z,100865.60
2023-10-03T08:25:22.734Z,100873.20
2023-10-03T08:27:51.367Z,100879.00
2023-10-03T08:30:29.340Z,100881.60
2023-10-03T08:33:01.179Z,100879.00
2023-10-03T08:35:41.384Z,100879.20
2023-10-03T08:38:15.537Z,100880.00
2023-10-03T08:40:51.325Z,100882.00
2023-10-03T08:43:27.993Z,100882.40
2023-10-03T08:45:59.186Z,100887.20
2023-10-03T08:48:32.180Z,100894.40
2023-10-03T08:51:03.199Z,100898.80
2023-10-03T08:53:32.705Z,100910.40
2023-10-03T08:56:02.863Z,100912.40
2023-10-03T08:58:31.586Z,100919.60
2023-10-03T09:01:03.605Z,100924.20
2023-10-03T09:03:50.066Z,100931.40
2023-10-03T09:06:23.290Z,100935.80
2023-10-03T09:09:14.372Z,100941.00
2023-10-03T09:11:52.587Z,100945.00
2023-10-03T09:14:23.480Z,100942.00
2023-10-03T09:16:55.624Z,100943.00
2023-10-03T09:19:48.290Z,100960.60
2023-10-03T09:22:32.384Z,100958.80
2023-10-03T09:25:00.301Z,100964.80
2023-10-03T09:27:32.512Z,100966.80
2023-10-03T09:30:09.860Z,100968.40
2023-10-03T09:32:41.640Z,100966.80
2023-10-03T09:35:13.116Z,100964.00
2023-10-03T09:37:44.832Z,100968.00
2023-10-03T09:40:19.220Z,100968.00
2023-10-03T09:42:51.176Z,100970.60
2023-10-03T09:45:26.058Z,100973.60
2023-10-03T09:47:59.720Z,100983.40
2023-10-03T09:50:31.342Z,100988.40
2023-10-03T09:53:02.769Z,100989.80
2023-10-03T09:55:47.889Z,100990.20
2023-10-03T09:58:25.511Z,100991.00
2023-10-03T10:00:56.025Z,100996.80
2023-10-03T10:03:40.841Z,101002.00
2023-10-03T10:06:58.488Z,101003.60
2023-10-03T10:09:30.995Z,101006.20
2023-10-03T10:12:13.424Z,101009.60
2023-10-03T10:15:11.954Z,101009.60
2023-10-03T10:17:52.382Z,101013.00
2023-10-03T10:20:38.656Z,101016.80
2023-10-03T10:23:18.139Z,101015.20
2023-10-03T10:25:57.926Z,101015.20
2023-10-03T10:28:28.796Z,101021.40
2023-10-03T10:31:45.953Z,101024.80
2023-10-03T10:34:22.595Z,101027.40
2023-10-03T10:37:04.405Z,101023.80
2023-10-03T10:40:15.492Z,101019.20
2023-10-03T10:43:05.597Z,101031.80
2023-10-03T10:45:41.043Z,101031.00
2023-10-03T10:48:10.127Z,101031.60
2023-10-03T10:51:04.910Z,101037.80
2023-10-03T10:53:45.751Z,101041.00
2023-10-03T10:56:15.128Z,101043.60
2023-10-03T10:59:06.024Z,101040.60
2023-10-03T11:01:41.027Z,101050.40
2023-10-03T11:04:24.561Z,101065.40
2023-10-03T11:06:53.651Z,101064.40
2023-10-03T11:09:24.088Z,101064.80
2023-10-03T11:11:56.424Z,101062.00
2023-10-03T11:14:32.853Z,101076.20
2023-10-03T11:17:04.763Z,101084.60
2023-10-03T11:19:34.711Z,101082.80
2023-10-03T11:22:03.035Z,101075.20
2023-10-03T11:24:39.369Z,101078.20
2023-10-03T11:27:07.742Z,101087.20
2023-10-03T11:29:50.137Z,101080.20
2023-10-03T11:32:26.694Z,101084.20
2023-10-03T11:34:57.711Z,101077.60
2023-10-03T11:37:42.555Z,101084.60
2023-10-03T11:40:15.441Z,101076.60
2023-10-03T11:43:05.001Z,101079.40
2023-10-03T11:45:35.054Z,101094.60
2023-10-03T11:48:12.244Z,101078.00
2023-10-03T11:50:41.920Z,101082.60
2023-10-03T11:53:10.178Z,101077.20
2023-10-03T11:55:43.990Z,101092.60
2023-10-03T11:58:12.130Z,101080.40
2023-10-03T12:00:45.637Z,101078.00
2023-10-03T12:03:15.351Z,101078.00
2023-10-03T12:05:44.069Z,101075.60
2023-10-03T12:08:12.827Z,101079.80
2023-10-03T12:10:42.636Z,101073.80
2023-10-03T12:13:11.546Z,101076.60
2023-10-03T12:15:43.553Z,101083.40
2023-10-03T12:18:16.472Z,101082.00
2023-10-03T12:20:47.782Z,101095.00
2023-10-03T12:23:16.616Z,101098.00
2023-10-03T12:25:44.701Z,101105.20
2023-10-03T12:28:12.594Z,101107.60
2023-10-03T12:30:40.467Z,101116.20
2023-10-03T12:33:12.680Z,101109.20
2023-10-03T12:35:41.926Z,101101.60
2023-10-03T12:38:11.703Z,101108.00
2023-10-03T12:40:39.528Z,101104.80
2023-10-03T12:43:08.452Z,101113.40
2023-10-03T12:45:36.322Z,101117.00
2023-10-03T12:48:06.631Z,101122.80
2023-10-03T12:50:36.978Z,101131.20
2023-10-03T12:53:06.489Z,101139.00
2023-10-03T12:55:35.604Z,101135.20
2023-10-03T12:58:04.756Z,101138.60
2023-10-03T13:00:32.656Z,101134.20
2023-10-03T13:03:01.363Z,101144.40
2023-10-03T13:05:30.004Z,101140.40
2023-10-03T13:07:57.887Z,101142.00
2023-10-03T13:10:27.500Z,101140.20
2023-10-03T13:12:58.186Z,101146.80
2023-10-03T13:15:25.996Z,101149.60
2023-10-03T13:17:54.289Z,101148.20
2023-10-03T13:20:25.905Z,101148.00
2023-10-03T13:22:58.645Z,101152.80
2023-10-03T13:25:26.637Z,101155.60
2023-10-03T13:27:54.928Z,101158.00
2023-10-03T13:30:26.782Z,101155.20
2023-10-03T13:32:57.743Z,101166.00
2023-10-03T13:35:26.042Z,101165.40
2023-10-03T13:37:55.747Z,101167.40
2023-10-03T13:40:24.526Z,101177.40
2023-10-03T13:42:52.531Z,101180.20
2023-10-03T13:45:21.043Z,101187.00
2023-10-03T13:47:51.093Z,101180.80
2023-10-03T13:50:19.461Z,101192.40
2023-10-03T13:52:48.615Z,101185.40
2023-10-03T13:55:19.413Z,101186.60
2023-10-03T13:57:47.871Z,101190.40
2023-10-03T14:00:16.549Z,101188.80
2023-10-03T14:02:51.660Z,101196.40
2023-10-03T14:05:20.463Z,101186.00
2023-10-03T14:07:48.453Z,101194.80
2023-10-03T14:10:18.465Z,101192.80
2023-10-03T14:12:46.591Z,101196.20
2023-10-03T14:15:20.129Z,101197.80
2023-10-03T14:17:48.429Z,101192.20
2023-10-03T14:20:17.406Z,101197.20
2023-10-03T14:22:45.192Z,101198.00
2023-10-03T14:25:14.192Z,101201.20
2023-10-03T14:27:45.625Z,101197.40
2023-10-03T14:30:14.268Z,101203.80
2023-10-03T14:32:42.531Z,101208.40
2023-10-03T14:35:13.403Z,101206.20
2023-10-03T14:37:42.418Z,101209.60
2023-10-03T14:40:17.064Z,101210.60
2023-10-03T14:42:46.737Z,101214.40
2023-10-03T14:45:14.892Z,101222.40
2023-10-03T14:47:43.173Z,101223.80
2023-10-03T14:50:12.209Z,101229.80
2023-10-03T14:52:40.874Z,101241.00
2023-10-03T14:55:11.634Z,101237.20
2023-10-03T14:57:39.920Z,101243.00
2023-10-03T15:00:08.964Z,101249.00
2023-10-03T15:02:36.945Z,101252.80
2023-10-03T15:05:07.296Z,101260.20
2023-10-03T15:07:35.682Z,101257.40
2023-10-03T15:10:04.433Z,101263.60
2023-10-03T15:12:32.164Z,101262.60
2023-10-03T15:15:00.373Z,101264.60
2023-10-03T15:17:29.430Z,101266.80
2023-10-03T15:19:57.864Z,101271.80
2023-10-03T15:22:27.664Z,101279.00
2023-10-03T15:24:55.615Z,101281.20
2023-10-03T15:27:23.533Z,101276.20
2023-10-03T15:29:52.048Z,101281.20
2023-10-03T15:32:20.631Z,101284.60
2023-10-03T15:34:48.481Z,101294.80
2023-10-03T15:37:18.889Z,101293.20
2023-10-03T15:39:47.433Z,101296.00
2023-10-03T15:42:15.320Z,101298.00
2023-10-03T15:44:54.518Z,101303.60
2023-10-03T15:47:34.312Z,101310.60
2023-10-03T15:50:02.208Z,101317.60
2023-10-03T15:52:29.996Z,101314.80
2023-10-03T15:54:59.171Z,101322.20
2023-10-03T15:57:26.969Z,101322.20
2023-10-03T15:59:54.881Z,101320.60
2023-10-03T16:02:23.158Z,101317.00
2023-10-03T16:04:51.164Z,101329.40
2023-10-03T16:07:19.579Z,101335.40
2023-10-03T16:09:50.650Z,101338.80
2023-10-03T16:12:20.554Z,101341.80
2023-10-03T16:14:48.769Z,101347.60
2023-10-03T16:17:17.703Z,101347.00
2023-10-03T16:19:47.335Z,101355.60
2023-10-03T16:22:15.870Z,101355.40
2023-10-03T16:24:44.798Z,101358.40
2023-10-03T16:27:13.803Z,101370.60
2023-10-03T16:29:41.882Z,101378.40
2023-10-03T16:32:13.472Z,101381.80
2023-10-03T16:34:41.373Z,101383.00
2023-10-03T16:37:09.657Z,101385.40
2023-10-03T16:39:38.320Z,101384.80
2023-10-03T16:42:07.963Z,101393.20
2023-10-03T16:44:37.560Z,101397.20
2023-10-03T16:47:05.606Z,101402.80
2023-10-03T16:49:33.561Z,101405.80
2023-10-03T16:52:01.524Z,101410.80
2023-10-03T16:54:29.577Z,101411.20
2023-10-03T16:56:58.571Z,101412.00
2023-10-03T16:59:26.393Z,101418.60
2023-10-03T17:01:54.449Z,101421.00
2023-10-03T17:04:22.613Z,101423.00
2023-10-03T17:06:51.099Z,101425.00
2023-10-03T17:09:19.341Z,101426.80
2023-10-03T17:11:55.200Z,101434.80
2023-10-03T17:14:23.289Z,101438.60
2023-10-03T17:16:51.086Z,101444.60
2023-10-03T17:19:19.054Z,101449.00
2023-10-03T17:21:46.801Z,101449.20
2023-10-03T17:24:14.599Z,101451.00
2023-10-03T17:26:42.665Z,101452.80
2023-10-03T17:29:12.914Z,101453.20
2023-10-03T17:31:44.365Z,101450.00
2023-10-03T17:34:13.449Z,101459.60
2023-10-03T17:36:42.384Z,101461.00
2023-10-03T17:39:12.252Z,101472.20
2023-10-03T17:41:41.283Z,101473.40
2023-10-03T17:44:09.794Z,101475.80
2023-10-03T17:46:37.800Z,101479.60
2023-10-03T17:49:06.031Z,101482.80
2023-10-03T17:51:34.025Z,101484.60
2023-10-03T17:54:02.702Z,101490.60
2023-10-03T17:56:30.678Z,101498.40
2023-10-03T17:59:01.932Z,101507.00
2023-10-03T18:01:30.408Z,101509.20
2023-10-03T18:03:58.679Z,101508.60
2023-10-03T18:06:26.668Z,101514.80
2023-10-03T18:08:54.769Z,101515.00
2023-10-03T18:11:22.484Z,101521.60
2023-10-03T18:13:50.944Z,101519.40
2023-10-03T18:16:19.164Z,101525.40
2023-10-03T18:18:47.073Z,101520.20
2023-10-03T18:21:15.481Z,101530.20
2023-10-03T18:23:48.993Z,101532.40
2023-10-03T18:26:18.137Z,101531.80
2023-10-03T18:28:45.928Z,101531.00
2023-10-03T18:31:19.944Z,101536.80
2023-10-03T18:33:47.876Z,101532.20
2023-10-03T18:36:20.570Z,101539.00
2023-10-03T18:38:48.590Z,101548.80
2023-10-03T18:41:16.482Z,101556.60
2023-10-03T18:43:44.445Z,101561.80
2023-10-03T18:46:14.405Z,101561.40
2023-10-03T18:48:42.529Z,101562.80
2023-10-03T18:51:10.417Z,101563.00
2023-10-03T18:53:39.954Z,101566.60
2023-10-03T18:56:11.957Z,101572.00
2023-10-03T18:58:40.980Z,101577.00
2023-10-03T19:01:18.372Z,101574.60
2023-10-03T19:03:47.956Z,101575.20
2023-10-03T19:06:17.045Z,101578.20
2023-10-03T19:08:45.890Z,101582.60
2023-10-03T19:11:20.917Z,101593.60
2023-10-03T19:13:48.767Z,101593.80
2023-10-03T19:16:19.037Z,101603.20
2023-10-03T19:18:47.954Z,101607.00
2023-10-03T19:21:16.550Z,101613.80
2023-10-03T19:23:46.397Z,101617.00
2023-10-03T19:26:15.048Z,101622.00
2023-10-03T19:28:43.162Z,101622.60
2023-10-03T19:31:11.038Z,101624.40
2023-10-03T19:33:41.617Z,101633.60
2023-10-03T19:36:13.816Z,101633.00
2023-10-03T19:38:43.306Z,101637.80
2023-10-03T19:41:15.567Z,101634.40
2023-10-03T19:43:46.094Z,101635.20
2023-10-03T19:46:20.288Z,101636.60
2023-10-03T19:48:48.608Z,101644.80
2023-10-03T19:51:21.286Z,101647.40
2023-10-03T19:53:51.942Z,101647.00
2023-10-03T19:56:23.540Z,101648.20
2023-10-03T19:58:52.541Z,101646.40
2023-10-03T20:01:24.812Z,101654.40
2023-10-03T20:03:53.372Z,101657.40
2023-10-03T20:06:21.708Z,101664.60
2023-10-03T20:08:50.173Z,101666.00
2023-10-03T20:11:18.640Z,101668.20
2023-10-03T20:13:48.327Z,101676.20
2023-10-03T20:16:16.488Z,101678.40
2023-10-03T20:18:49.388Z,101690.00
2023-10-03T20:21:18.339Z,101691.80
2023-10-03T20:23:46.546Z,101695.40
2023-10-03T20:26:16.086Z,101696.00
2023-10-03T20:28:44.164Z,101700.00
2023-10-03T20:31:11.984Z,101698.60
2023-10-03T20:33:40.267Z,101699.20
2023-10-03T20:36:15.581Z,101699.40
2023-10-03T20:38:43.676Z,101694.80
2023-10-03T20:41:13.996Z,101691.80
2023-10-03T20:43:42.637Z,101694.40
2023-10-03T20:46:15.940Z,101695.40
2023-10-03T20:48:44.730Z,101698.60
2023-10-03T20:51:19.617Z,101696.60
2023-10-03T20:53:48.120Z,101698.20
2023-10-03T20:56:16.169Z,101706.80
2023-10-03T20:58:45.204Z,101707.20
2023-10-03T21:01:14.533Z,101704.60
2023-10-03T21:03:45.838Z,101707.60
2023-10-03T21:06:13.652Z,101710.20
2023-10-03T21:08:41.424Z,101708.40
2023-10-03T21:11:09.709Z,101701.60
2023-10-03T21:13:38.272Z,101702.60
2023-10-03T21:16:06.632Z,101703.20
2023-10-03T21:18:34.853Z,101704.60
2023-10-03T21:21:03.235Z,101702.60
2023-10-03T21:23:32.694Z,101700.00
2023-10-03T21:26:08.010Z,101703.20
2023-10-03T21:28:36.380Z,101700.00
2023-10-03T21:31:07.489Z,101703.00
2023-10-03T21:33:35.992Z,101708.60
2023-10-03T21:36:07.205Z,101703.00
2023-10-03T21:38:35.125Z,101707.40
2023-10-03T21:41:02.889Z,101711.80
2023-10-03T21:43:30.816Z,101717.40
2023-10-03T21:46:01.596Z,101715.80
2023-10-03T21:48:29.494Z,101721.80
2023-10-03T21:51:07.534Z,101724.20
2023-10-03T21:53:37.595Z,101724.40
2023-10-03T21:56:10.003Z,101732.80
2023-10-03T21:58:38.278Z,101735.20
2023-10-03T22:01:06.902Z,101734.40
2023-10-03T22:03:38.053Z,101734.20
2023-10-03T22:06:05.991Z,101735.40
2023-10-03T22:08:33.793Z,101737.20
2023-10-03T22:11:01.658Z,101739.00
2023-10-03T22:13:31.802Z,101737.00
2023-10-03T22:15:59.621Z,101733.60
2023-10-03T22:18:27.517Z,101731.20
2023-10-03T22:20:56.045Z,101739.00
2023-10-03T22:23:24.921Z,101737.40
2023-10-03T22:25:52.626Z,101742.20
2023-10-03T22:28:20.559Z,101741.20
2023-10-03T22:30:48.337Z,101740.60
2023-10-03T22:33:16.332Z,101737.60
2023-10-03T22:35:44.282Z,101732.60
2023-10-03T22:38:12.130Z,101738.40
2023-10-03T22:40:40.846Z,101738.80
2023-10-03T22:43:08.885Z,101736.40
2023-10-03T22:45:37.633Z,101739.40
2023-10-03T22:48:06.135Z,101742.40
2023-10-03T22:50:34.358Z,101740.40
2023-10-03T22:53:02.470Z,101740.60
2023-10-03T22:55:30.442Z,101742.40
2023-10-03T22:57:58.307Z,101744.80
2023-10-03T23:00:26.513Z,101749.00
2023-10-03T23:02:54.614Z,101747.60
2023-10-03T23:05:22.701Z,101743.40
2023-10-03T23:07:50.695Z,101744.20
2023-10-03T23:10:18.680Z,101742.80
2023-10-03T23:12:46.743Z,101744.80
2023-10-03T23:15:15.914Z,101742.40
2023-10-03T23:17:47.484Z,101741.00
2023-10-03T23:20:16.200Z,101749.60
2023-10-03T23:22:44.409Z,101746.40
2023-10-03T23:25:15.028Z,101752.20
2023-10-03T23:27:43.218Z,101755.80
2023-10-03T23:30:12.794Z,101752.00
2023-10-03T23:32:40.883Z,101749.80
2023-10-03T23:35:10.226Z,101752.60
2023-10-03T23:37:38.540Z,101747.40
2023-10-03T23:40:14.635Z,101745.40
2023-10-03T23:42:45.051Z,101748.60
2023-10-03T23:45:14.820Z,101749.20
2023-10-03T23:47:43.502Z,101747.80
2023-10-03T23:50:12.363Z,101736.00
2023-10-03T23:52:41.402Z,101740.60
2023-10-03T23:55:13.828Z,101746.00
2023-10-03T23:57:47.238Z,101758.20
